sensor_id;sensor_type;location;lat;lon;timestamp;temperature;humidity
44731;DHT22;30458;47.448;19.032;2024-03-25T00:00:45;7.60;99.90
44731;DHT22;30458;47.448;19.032;2024-03-25T00:10:45;7.70;99.90
44731;DHT22;30458;47.448;19.032;2024-03-25T00:20:48;7.70;99.90
44731;DHT22;30458;47.448;19.032;2024-03-25T00:30:49;7.60;99.90
44731;DHT22;30458;47.448;19.032;2024-03-25T00:40:50;7.50;99.90
44731;DHT22;30458;47.448;19.032;2024-03-25T00:50:51;7.30;99.90
44731;DHT22;30458;47.448;19.032;2024-03-25T01:00:55;7.40;99.90
44731;DHT22;30458;47.448;19.032;2024-03-25T01:10:58;7.60;99.90
44731;DHT22;30458;47.448;19.032;2024-03-25T01:21:02;7.70;99.90
44731;DHT22;30458;47.448;19.032;2024-03-25T01:31:02;7.60;99.90
44731;DHT22;30458;47.448;19.032;2024-03-25T01:41:11;7.40;99.90
44731;DHT22;30458;47.448;19.032;2024-03-25T01:51:15;7.60;99.90
44731;DHT22;30458;47.448;19.032;2024-03-25T02:01:16;7.60;99.90
44731;DHT22;30458;47.448;19.032;2024-03-25T02:11:18;7.50;99.90
44731;DHT22;30458;47.448;19.032;2024-03-25T02:21:20;7.50;99.90
44731;DHT22;30458;47.448;19.032;2024-03-25T02:31:21;7.60;99.90
44731;DHT22;30458;47.448;19.032;2024-03-25T02:41:22;7.60;99.90
44731;DHT22;30458;47.448;19.032;2024-03-25T02:51:25;7.40;99.90
44731;DHT22;30458;47.448;19.032;2024-03-25T03:01:28;7.40;99.90
44731;DHT22;30458;47.448;19.032;2024-03-25T03:11:31;7.40;99.90
44731;DHT22;30458;47.448;19.032;2024-03-25T03:21:32;7.40;99.90
44731;DHT22;30458;47.448;19.032;2024-03-25T03:31:35;7.50;99.90
44731;DHT22;30458;47.448;19.032;2024-03-25T03:41:35;7.60;99.90
44731;DHT22;30458;47.448;19.032;2024-03-25T03:51:41;7.70;99.90
44731;DHT22;30458;47.448;19.032;2024-03-25T04:01:42;7.90;99.90
44731;DHT22;30458;47.448;19.032;2024-03-25T04:11:43;8.00;99.90
44731;DHT22;30458;47.448;19.032;2024-03-25T04:21:44;8.00;99.90
44731;DHT22;30458;47.448;19.032;2024-03-25T04:31:50;8.00;99.90
44731;DHT22;30458;47.448;19.032;2024-03-25T04:41:51;8.10;99.90
44731;DHT22;30458;47.448;19.032;2024-03-25T04:51:52;8.20;99.90
44731;DHT22;30458;47.448;19.032;2024-03-25T05:01:54;8.10;99.90
44731;DHT22;30458;47.448;19.032;2024-03-25T05:11:59;8.10;99.90
44731;DHT22;30458;47.448;19.032;2024-03-25T05:22:00;8.00;99.90
44731;DHT22;30458;47.448;19.032;2024-03-25T05:32:03;8.00;99.90
44731;DHT22;30458;47.448;19.032;2024-03-25T05:42:09;8.10;99.90
44731;DHT22;30458;47.448;19.032;2024-03-25T05:52:10;8.00;99.90
44731;DHT22;30458;47.448;19.032;2024-03-25T06:02:10;7.80;99.90
44731;DHT22;30458;47.448;19.032;2024-03-25T06:12:11;7.80;99.90
44731;DHT22;30458;47.448;19.032;2024-03-25T06:22:13;8.00;99.90
44731;DHT22;30458;47.448;19.032;2024-03-25T06:32:14;8.50;99.90
44731;DHT22;30458;47.448;19.032;2024-03-25T06:42:33;9.10;99.90
44731;DHT22;30458;47.448;19.032;2024-03-25T06:52:34;12.00;99.90
44731;DHT22;30458;47.448;19.032;2024-03-25T07:02:37;11.70;99.30
44731;DHT22;30458;47.448;19.032;2024-03-25T07:12:38;11.10;99.90
44731;DHT22;30458;47.448;19.032;2024-03-25T07:22:41;10.00;99.90
44731;DHT22;30458;47.448;19.032;2024-03-25T07:32:41;9.90;99.90
44731;DHT22;30458;47.448;19.032;2024-03-25T07:42:44;9.60;99.90
44731;DHT22;30458;47.448;19.032;2024-03-25T07:52:52;10.10;99.90
44731;DHT22;30458;47.448;19.032;2024-03-25T08:02:52;10.10;99.90
44731;DHT22;30458;47.448;19.032;2024-03-25T08:12:53;10.60;99.60
44731;DHT22;30458;47.448;19.032;2024-03-25T08:22:54;10.30;99.90
44731;DHT22;30458;47.448;19.032;2024-03-25T08:32:55;10.40;99.90
44731;DHT22;30458;47.448;19.032;2024-03-25T08:42:58;10.80;99.80
44731;DHT22;30458;47.448;19.032;2024-03-25T08:52:59;12.80;97.50
44731;DHT22;30458;47.448;19.032;2024-03-25T09:03:02;11.90;96.60
44731;DHT22;30458;47.448;19.032;2024-03-25T09:13:04;11.90;96.90
44731;DHT22;30458;47.448;19.032;2024-03-25T09:23:05;12.40;95.40
44731;DHT22;30458;47.448;19.032;2024-03-25T09:33:08;12.00;95.90
44731;DHT22;30458;47.448;19.032;2024-03-25T09:43:27;12.90;95.30
44731;DHT22;30458;47.448;19.032;2024-03-25T09:53:30;13.10;94.10
44731;DHT22;30458;47.448;19.032;2024-03-25T10:03:31;12.10;94.50
44731;DHT22;30458;47.448;19.032;2024-03-25T10:13:34;11.70;94.70
44731;DHT22;30458;47.448;19.032;2024-03-25T10:23:35;12.20;93.10
44731;DHT22;30458;47.448;19.032;2024-03-25T10:33:41;12.80;92.30
44731;DHT22;30458;47.448;19.032;2024-03-25T10:43:44;12.80;92.90
44731;DHT22;30458;47.448;19.032;2024-03-25T10:53:46;12.80;91.80
44731;DHT22;30458;47.448;19.032;2024-03-25T11:03:48;12.60;91.90
44731;DHT22;30458;47.448;19.032;2024-03-25T11:13:52;13.00;90.60
44731;DHT22;30458;47.448;19.032;2024-03-25T11:23:55;13.00;91.00
44731;DHT22;30458;47.448;19.032;2024-03-25T11:33:55;13.50;89.40
44731;DHT22;30458;47.448;19.032;2024-03-25T11:43:58;12.90;89.70
44731;DHT22;30458;47.448;19.032;2024-03-25T11:53:59;12.80;90.80
44731;DHT22;30458;47.448;19.032;2024-03-25T12:04:12;11.80;95.10
44731;DHT22;30458;47.448;19.032;2024-03-25T12:14:13;11.30;95.00
44731;DHT22;30458;47.448;19.032;2024-03-25T12:24:16;11.70;94.60
44731;DHT22;30458;47.448;19.032;2024-03-25T12:34:19;11.80;94.00
44731;DHT22;30458;47.448;19.032;2024-03-25T12:44:20;11.70;93.90
44731;DHT22;30458;47.448;19.032;2024-03-25T12:54:21;11.50;95.10
44731;DHT22;30458;47.448;19.032;2024-03-25T13:04:24;11.50;94.30
44731;DHT22;30458;47.448;19.032;2024-03-25T13:14:27;11.70;93.60
44731;DHT22;30458;47.448;19.032;2024-03-25T13:24:33;12.00;94.40
44731;DHT22;30458;47.448;19.032;2024-03-25T13:34:36;11.90;93.40
44731;DHT22;30458;47.448;19.032;2024-03-25T13:44:37;12.20;92.90
44731;DHT22;30458;47.448;19.032;2024-03-25T13:54:40;12.10;93.30
44731;DHT22;30458;47.448;19.032;2024-03-25T14:04:41;11.90;94.60
44731;DHT22;30458;47.448;19.032;2024-03-25T14:14:41;12.10;94.60
44731;DHT22;30458;47.448;19.032;2024-03-25T14:24:45;12.10;93.00
44731;DHT22;30458;47.448;19.032;2024-03-25T14:34:48;11.90;92.70
44731;DHT22;30458;47.448;19.032;2024-03-25T14:44:49;12.00;91.40
44731;DHT22;30458;47.448;19.032;2024-03-25T14:54:51;12.30;90.70
44731;DHT22;30458;47.448;19.032;2024-03-25T15:04:51;12.40;90.20
44731;DHT22;30458;47.448;19.032;2024-03-25T15:14:53;12.40;90.40
44731;DHT22;30458;47.448;19.032;2024-03-25T15:24:57;12.50;90.00
44731;DHT22;30458;47.448;19.032;2024-03-25T15:34:58;12.60;90.20
44731;DHT22;30458;47.448;19.032;2024-03-25T15:44:59;12.50;90.80
44731;DHT22;30458;47.448;19.032;2024-03-25T15:54:59;12.40;90.90
44731;DHT22;30458;47.448;19.032;2024-03-25T16:05:05;12.40;90.70
44731;DHT22;30458;47.448;19.032;2024-03-25T16:15:06;12.50;90.60
44731;DHT22;30458;47.448;19.032;2024-03-25T16:25:09;12.40;91.50
44731;DHT22;30458;47.448;19.032;2024-03-25T16:35:11;12.00;92.50
44731;DHT22;30458;47.448;19.032;2024-03-25T16:45:11;11.80;92.60
44731;DHT22;30458;47.448;19.032;2024-03-25T16:55:12;11.80;92.90
44731;DHT22;30458;47.448;19.032;2024-03-25T17:05:15;11.70;93.20
44731;DHT22;30458;47.448;19.032;2024-03-25T17:15:21;11.50;93.10
44731;DHT22;30458;47.448;19.032;2024-03-25T17:25:27;11.40;93.10
44731;DHT22;30458;47.448;19.032;2024-03-25T17:35:27;11.30;93.10
44731;DHT22;30458;47.448;19.032;2024-03-25T17:45:28;11.10;93.40
44731;DHT22;30458;47.448;19.032;2024-03-25T17:55:29;10.90;93.60
44731;DHT22;30458;47.448;19.032;2024-03-25T18:05:32;10.80;93.60
44731;DHT22;30458;47.448;19.032;2024-03-25T18:15:33;10.70;94.10
44731;DHT22;30458;47.448;19.032;2024-03-25T18:25:34;10.70;94.50
44731;DHT22;30458;47.448;19.032;2024-03-25T18:35:38;10.50;95.00
44731;DHT22;30458;47.448;19.032;2024-03-25T18:45:45;10.20;95.70
44731;DHT22;30458;47.448;19.032;2024-03-25T18:55:46;10.10;96.30
44731;DHT22;30458;47.448;19.032;2024-03-25T19:05:49;9.80;96.80
44731;DHT22;30458;47.448;19.032;2024-03-25T19:15:51;9.70;96.80
44731;DHT22;30458;47.448;19.032;2024-03-25T19:25:51;9.60;96.80
44731;DHT22;30458;47.448;19.032;2024-03-25T19:35:52;9.40;97.60
44731;DHT22;30458;47.448;19.032;2024-03-25T19:45:53;9.20;97.90
44731;DHT22;30458;47.448;19.032;2024-03-25T19:55:58;8.90;98.40
44731;DHT22;30458;47.448;19.032;2024-03-25T20:05:59;8.70;98.70
44731;DHT22;30458;47.448;19.032;2024-03-25T20:16:00;8.70;98.80
44731;DHT22;30458;47.448;19.032;2024-03-25T20:26:03;8.30;99.50
44731;DHT22;30458;47.448;19.032;2024-03-25T20:36:04;8.20;99.60
44731;DHT22;30458;47.448;19.032;2024-03-25T20:46:07;8.10;99.70
44731;DHT22;30458;47.448;19.032;2024-03-25T20:56:13;8.00;99.90
44731;DHT22;30458;47.448;19.032;2024-03-25T21:06:14;8.10;99.90
44731;DHT22;30458;47.448;19.032;2024-03-25T21:16:14;7.80;99.90
44731;DHT22;30458;47.448;19.032;2024-03-25T21:26:16;7.80;99.90
44731;DHT22;30458;47.448;19.032;2024-03-25T21:36:17;7.80;99.90
44731;DHT22;30458;47.448;19.032;2024-03-25T21:46:18;7.60;99.90
44731;DHT22;30458;47.448;19.032;2024-03-25T21:56:23;7.20;99.90
44731;DHT22;30458;47.448;19.032;2024-03-25T22:06:24;7.00;99.90
44731;DHT22;30458;47.448;19.032;2024-03-25T22:16:25;7.00;99.90
44731;DHT22;30458;47.448;19.032;2024-03-25T22:26:26;7.00;99.90
44731;DHT22;30458;47.448;19.032;2024-03-25T22:36:30;6.90;99.90
44731;DHT22;30458;47.448;19.032;2024-03-25T22:46:33;6.80;99.90
44731;DHT22;30458;47.448;19.032;2024-03-25T22:56:36;6.80;99.90
44731;DHT22;30458;47.448;19.032;2024-03-25T23:06:37;6.50;99.90
44731;DHT22;30458;47.448;19.032;2024-03-25T23:16:37;6.30;99.90
44731;DHT22;30458;47.448;19.032;2024-03-25T23:26:40;6.50;99.90
44731;DHT22;30458;47.448;19.032;2024-03-25T23:36:41;6.50;99.90
44731;DHT22;30458;47.448;19.032;2024-03-25T23:46:42;6.30;99.90
44731;DHT22;30458;47.448;19.032;2024-03-25T23:56:43;6.20;99.90
